createdAt,value
2018-03-08T00:02:22.564Z,16.13
2018-03-08T00:04:48.472Z,16.32
2018-03-08T00:07:15.179Z,16.26
2018-03-08T00:09:41.079Z,16.42
2018-03-08T00:12:07.766Z,16.37
2018-03-08T00:14:33.675Z,16.40
2018-03-08T00:17:00.423Z,16.29
2018-03-08T00:19:27.145Z,16.26
2018-03-08T00:21:53.047Z,16.31
2018-03-08T00:24:18.993Z,16.37
2018-03-08T00:26:44.881Z,16.33
2018-03-08T00:29:11.709Z,16.38
2018-03-08T00:31:37.566Z,16.31
2018-03-08T00:34:03.452Z,16.27
2018-03-08T00:36:30.241Z,16.31
2018-03-08T00:38:56.131Z,16.22
2018-03-08T00:41:21.972Z,16.22
2018-03-08T00:43:48.654Z,16.21
2018-03-08T00:46:14.520Z,16.26
2018-03-08T00:48:41.313Z,16.30
2018-03-08T00:51:08.190Z,16.40
2018-03-08T00:53:34.083Z,16.42
2018-03-08T00:56:00.871Z,16.39
2018-03-08T00:58:27.698Z,16.46
2018-03-08T01:00:53.663Z,16.36
2018-03-08T01:03:19.567Z,16.32
2018-03-08T01:05:45.509Z,16.42
2018-03-08T01:08:11.398Z,16.41
2018-03-08T01:10:37.295Z,16.41
2018-03-08T01:13:03.178Z,16.44
2018-03-08T01:15:29.069Z,16.30
2018-03-08T01:17:54.903Z,16.36
2018-03-08T01:20:21.782Z,16.27
2018-03-08T01:22:47.666Z,16.30
2018-03-08T01:25:13.529Z,16.41
2018-03-08T01:27:39.419Z,16.42
2018-03-08T01:30:05.253Z,16.53
2018-03-08T01:32:31.148Z,16.27
2018-03-08T01:34:57.028Z,16.31
2018-03-08T01:37:23.813Z,16.27
2018-03-08T01:39:49.708Z,16.24
2018-03-08T01:42:15.602Z,16.29
2018-03-08T01:44:41.478Z,16.41
2018-03-08T01:47:07.369Z,16.35
2018-03-08T01:49:33.237Z,16.28
2018-03-08T01:52:05.334Z,16.21
2018-03-08T01:54:32.215Z,16.17
2018-03-08T01:56:58.110Z,16.28
2018-03-08T01:59:23.995Z,16.29
2018-03-08T02:01:50.821Z,16.38
2018-03-08T02:04:17.756Z,16.31
2018-03-08T02:06:43.648Z,16.27
2018-03-08T02:09:09.650Z,16.28
2018-03-08T02:11:36.417Z,16.31
2018-03-08T02:14:03.294Z,16.15
2018-03-08T02:16:29.132Z,16.19
2018-03-08T02:18:55.077Z,16.26
2018-03-08T02:21:20.964Z,16.30
2018-03-08T02:23:46.855Z,16.30
2018-03-08T02:26:12.743Z,16.25
2018-03-08T02:28:38.665Z,16.22
2018-03-08T02:31:04.527Z,16.32
2018-03-08T02:33:30.415Z,16.25
2018-03-08T02:35:56.302Z,16.32
2018-03-08T02:38:22.192Z,16.26
2018-03-08T02:40:48.106Z,16.27
2018-03-08T02:43:14.071Z,16.32
2018-03-08T02:45:40.043Z,16.26
2018-03-08T02:48:05.931Z,16.40
2018-03-08T02:50:31.824Z,16.38
2018-03-08T02:52:57.711Z,16.40
2018-03-08T02:55:23.603Z,16.32
2018-03-08T02:57:49.433Z,16.23
2018-03-08T03:00:15.402Z,16.24
2018-03-08T03:02:41.307Z,16.28
2018-03-08T03:05:07.194Z,16.20
2018-03-08T03:07:33.051Z,16.21
2018-03-08T03:09:58.949Z,16.30
2018-03-08T03:12:24.949Z,16.11
2018-03-08T03:14:50.849Z,16.19
2018-03-08T03:17:16.790Z,16.39
2018-03-08T03:19:42.683Z,16.40
2018-03-08T03:22:08.682Z,16.29
2018-03-08T03:24:34.582Z,16.35
2018-03-08T03:27:00.554Z,16.29
2018-03-08T03:29:26.441Z,16.28
2018-03-08T03:31:52.402Z,16.27
2018-03-08T03:34:18.287Z,16.23
2018-03-08T03:36:44.178Z,16.33
2018-03-08T03:39:10.068Z,16.32
2018-03-08T03:41:35.961Z,16.29
2018-03-08T03:44:01.849Z,16.26
2018-03-08T03:46:27.769Z,16.30
2018-03-08T03:48:53.720Z,16.27
2018-03-08T03:51:19.629Z,16.31
2018-03-08T03:53:45.498Z,16.18
2018-03-08T03:56:11.387Z,16.17
2018-03-08T03:58:37.281Z,16.22
2018-03-08T04:01:07.158Z,16.26
2018-03-08T04:03:33.040Z,16.27
2018-03-08T04:05:59.749Z,16.23
2018-03-08T04:08:25.608Z,16.23
2018-03-08T04:10:51.443Z,16.26
2018-03-08T04:13:17.299Z,16.26
2018-03-08T04:15:43.185Z,16.21
2018-03-08T04:18:10.065Z,16.34
2018-03-08T04:20:35.956Z,16.14
2018-03-08T04:23:01.845Z,16.27
2018-03-08T04:25:27.736Z,16.30
2018-03-08T04:27:53.624Z,16.14
2018-03-08T04:30:19.515Z,16.16
2018-03-08T04:32:45.438Z,16.21
2018-03-08T04:35:11.419Z,16.26
2018-03-08T04:37:37.401Z,16.06
2018-03-08T04:40:03.433Z,16.21
2018-03-08T04:42:29.434Z,16.33
2018-03-08T04:44:55.506Z,16.30
2018-03-08T04:47:21.613Z,16.37
2018-03-08T04:49:47.681Z,16.38
2018-03-08T04:52:13.663Z,16.34
2018-03-08T04:54:39.730Z,16.36
2018-03-08T04:57:05.739Z,16.25
2018-03-08T04:59:31.961Z,16.34
2018-03-08T05:01:58.029Z,16.38
2018-03-08T05:04:24.100Z,16.36
2018-03-08T05:06:50.172Z,16.34
2018-03-08T05:09:16.169Z,16.40
2018-03-08T05:11:42.242Z,16.32
2018-03-08T05:14:08.291Z,16.30
2018-03-08T05:16:34.359Z,16.28
2018-03-08T05:19:00.380Z,16.27
2018-03-08T05:21:26.409Z,16.40
2018-03-08T05:23:52.460Z,16.38
2018-03-08T05:26:18.537Z,16.37
2018-03-08T05:28:44.600Z,16.26
2018-03-08T05:31:10.810Z,16.24
2018-03-08T05:33:36.929Z,16.40
2018-03-08T05:36:03.000Z,16.29
2018-03-08T05:38:29.092Z,16.31
2018-03-08T05:40:55.162Z,16.44
2018-03-08T05:43:21.246Z,16.42
2018-03-08T05:45:47.308Z,16.29
2018-03-08T05:48:13.353Z,16.27
2018-03-08T05:50:39.239Z,16.43
2018-03-08T05:53:05.154Z,16.41
2018-03-08T05:55:31.133Z,16.44
2018-03-08T05:57:57.117Z,16.43
2018-03-08T06:00:23.069Z,16.62
2018-03-08T06:02:48.977Z,16.58
2018-03-08T06:05:14.950Z,16.59
2018-03-08T06:07:40.918Z,16.52
2018-03-08T06:10:06.858Z,16.57
2018-03-08T06:12:32.850Z,16.47
2018-03-08T06:14:58.987Z,16.61
2018-03-08T06:17:24.874Z,16.55
2018-03-08T06:19:50.798Z,16.64
2018-03-08T06:22:16.826Z,16.63
2018-03-08T06:24:42.793Z,16.62
2018-03-08T06:27:08.585Z,16.57
2018-03-08T06:29:35.362Z,16.61
2018-03-08T06:32:01.137Z,16.67
2018-03-08T06:34:26.924Z,16.70
2018-03-08T06:36:52.713Z,16.61
2018-03-08T06:39:18.545Z,16.57
2018-03-08T06:41:45.297Z,16.52
2018-03-08T06:44:11.083Z,16.55
2018-03-08T06:46:36.903Z,16.49
2018-03-08T06:49:02.683Z,16.58
2018-03-08T06:51:28.514Z,16.51
2018-03-08T06:53:54.297Z,16.61
2018-03-08T06:56:20.071Z,16.60
2018-03-08T06:58:45.856Z,16.64
2018-03-08T07:01:11.642Z,16.61
2018-03-08T07:03:37.458Z,16.64
2018-03-08T07:06:03.235Z,16.74
2018-03-08T07:08:29.078Z,16.70
2018-03-08T07:10:54.869Z,16.61
2018-03-08T07:13:20.845Z,16.71
2018-03-08T07:15:46.793Z,16.54
2018-03-08T07:18:12.742Z,16.61
2018-03-08T07:20:38.694Z,16.57
2018-03-08T07:23:04.638Z,16.54
2018-03-08T07:25:30.427Z,16.59
2018-03-08T07:27:56.216Z,16.59
2018-03-08T07:30:22.090Z,16.61
2018-03-08T07:32:47.882Z,16.57
2018-03-08T07:35:13.705Z,16.60
2018-03-08T07:37:39.542Z,16.65
2018-03-08T07:40:05.331Z,16.55
2018-03-08T07:42:31.118Z,16.53
2018-03-08T07:44:56.948Z,16.59
2018-03-08T07:47:22.720Z,16.62
2018-03-08T07:49:48.507Z,16.53
2018-03-08T07:52:14.336Z,16.60
2018-03-08T07:54:40.119Z,16.62
2018-03-08T07:57:05.902Z,16.58
2018-03-08T07:59:31.689Z,16.70
2018-03-08T08:01:57.470Z,16.63
2018-03-08T08:04:29.464Z,16.61
2018-03-08T08:07:01.383Z,16.59
2018-03-08T08:09:27.184Z,16.79
2018-03-08T08:11:52.978Z,16.70
2018-03-08T08:14:18.774Z,16.73
2018-03-08T08:16:44.549Z,16.72
2018-03-08T08:19:10.334Z,16.65
2018-03-08T08:21:36.131Z,16.78
2018-03-08T08:24:01.922Z,16.70
2018-03-08T08:26:27.717Z,16.67
2018-03-08T08:28:53.509Z,16.63
2018-03-08T08:31:19.293Z,16.75
2018-03-08T08:33:45.082Z,16.63
2018-03-08T08:36:10.868Z,16.72
2018-03-08T08:38:36.645Z,16.69
2018-03-08T08:41:02.433Z,16.72
2018-03-08T08:43:28.222Z,16.73
2018-03-08T08:45:54.055Z,16.73
2018-03-08T08:48:19.845Z,16.66
2018-03-08T08:50:45.676Z,16.71
2018-03-08T08:53:11.470Z,16.62
2018-03-08T08:55:37.260Z,16.69
2018-03-08T08:58:03.051Z,16.66
2018-03-08T09:00:28.836Z,16.72
2018-03-08T09:02:54.614Z,16.72
2018-03-08T09:05:20.393Z,16.66
2018-03-08T09:07:46.218Z,16.73
2018-03-08T09:10:12.011Z,16.69
2018-03-08T09:12:37.810Z,16.69
2018-03-08T09:15:03.602Z,16.70
2018-03-08T09:17:29.446Z,16.72
2018-03-08T09:19:55.230Z,16.66
2018-03-08T09:22:21.019Z,16.75
2018-03-08T09:24:46.817Z,16.76
2018-03-08T09:27:12.622Z,16.78
2018-03-08T09:29:38.417Z,16.86
2018-03-08T09:32:04.210Z,16.69
2018-03-08T09:34:30.039Z,16.79
2018-03-08T09:36:55.826Z,16.78
2018-03-08T09:39:21.653Z,16.75
2018-03-08T09:41:47.437Z,16.80
2018-03-08T09:44:13.259Z,16.82
2018-03-08T09:46:39.043Z,16.76
2018-03-08T09:49:04.835Z,16.73
2018-03-08T09:51:30.618Z,16.83
2018-03-08T09:53:57.311Z,16.76
2018-03-08T09:56:23.101Z,16.72
2018-03-08T09:58:48.922Z,16.80
2018-03-08T10:01:14.728Z,16.74
2018-03-08T10:03:40.590Z,16.75
2018-03-08T10:06:06.380Z,16.77
2018-03-08T10:08:32.204Z,16.66
2018-03-08T10:10:57.986Z,16.79
2018-03-08T10:13:23.778Z,16.76
2018-03-08T10:15:49.573Z,16.77
2018-03-08T10:18:15.366Z,16.81
2018-03-08T10:20:41.155Z,16.75
2018-03-08T10:23:06.945Z,16.82
2018-03-08T10:25:32.777Z,16.77
2018-03-08T10:27:58.603Z,16.82
2018-03-08T10:30:24.429Z,16.82
2018-03-08T10:32:50.219Z,16.84
2018-03-08T10:35:16.038Z,16.87
2018-03-08T10:37:41.863Z,16.84
2018-03-08T10:40:07.655Z,16.75
2018-03-08T10:44:59.335Z,16.77
2018-03-08T10:47:25.122Z,16.78
2018-03-08T10:49:50.945Z,16.74
2018-03-08T10:52:17.294Z,16.80
2018-03-08T10:54:43.137Z,16.83
2018-03-08T10:57:08.927Z,16.83
2018-03-08T10:59:34.714Z,16.81
2018-03-08T11:02:02.373Z,16.84
2018-03-08T11:04:28.175Z,16.86
2018-03-08T11:06:53.968Z,16.86
2018-03-08T11:09:19.771Z,16.93
2018-03-08T11:11:45.562Z,16.82
2018-03-08T11:14:11.362Z,16.82
2018-03-08T11:16:37.149Z,16.85
2018-03-08T11:19:02.943Z,16.82
2018-03-08T11:21:28.730Z,16.85
2018-03-08T11:23:54.524Z,16.78
2018-03-08T11:26:20.346Z,16.91
2018-03-08T11:28:46.142Z,16.80
2018-03-08T11:31:11.927Z,16.81
2018-03-08T11:33:37.712Z,16.78
2018-03-08T11:36:03.510Z,16.82
2018-03-08T11:38:29.313Z,16.83
2018-03-08T11:40:55.101Z,16.90
2018-03-08T11:43:20.905Z,16.78
2018-03-08T11:45:46.711Z,16.83
2018-03-08T11:48:12.502Z,16.81
2018-03-08T11:50:38.289Z,16.74
2018-03-08T11:53:05.041Z,16.79
2018-03-08T11:55:30.827Z,16.86
2018-03-08T11:57:56.623Z,16.78
2018-03-08T12:00:22.412Z,16.86
2018-03-08T12:02:48.197Z,16.92
2018-03-08T12:05:14.055Z,16.97
2018-03-08T12:07:39.875Z,16.85
2018-03-08T12:10:05.715Z,16.91
2018-03-08T12:12:31.499Z,16.81
2018-03-08T12:14:57.286Z,16.84
2018-03-08T12:17:23.115Z,16.85
2018-03-08T12:19:48.906Z,16.92
2018-03-08T12:22:14.694Z,16.83
2018-03-08T12:24:40.491Z,16.95
2018-03-08T12:27:06.284Z,16.97
2018-03-08T12:29:32.072Z,16.90
2018-03-08T12:31:57.909Z,16.88
2018-03-08T12:34:23.700Z,16.86
2018-03-08T12:36:49.501Z,16.89
2018-03-08T12:39:15.293Z,16.89
2018-03-08T12:41:41.087Z,16.90
2018-03-08T12:44:06.870Z,16.92
2018-03-08T12:46:32.658Z,16.78
2018-03-08T12:48:58.442Z,16.88
2018-03-08T12:51:24.234Z,16.85
2018-03-08T12:53:50.031Z,16.97
2018-03-08T12:56:15.821Z,17.02
2018-03-08T12:58:41.646Z,17.09
2018-03-08T13:01:07.503Z,17.14
2018-03-08T13:03:33.326Z,17.21
2018-03-08T13:05:59.122Z,17.26
2018-03-08T13:08:24.915Z,17.23
2018-03-08T13:10:50.742Z,17.13
2018-03-08T13:13:16.583Z,17.23
2018-03-08T13:15:42.383Z,17.08
2018-03-08T13:18:08.183Z,17.20
2018-03-08T13:20:34.011Z,17.22
2018-03-08T13:22:59.798Z,17.21
2018-03-08T13:25:25.626Z,17.23
2018-03-08T13:27:51.413Z,17.13
2018-03-08T13:30:17.206Z,17.27
2018-03-08T13:32:42.993Z,17.22
2018-03-08T13:35:08.775Z,17.21
2018-03-08T13:37:34.572Z,17.26
2018-03-08T13:40:00.365Z,17.17
2018-03-08T13:42:26.156Z,17.20
2018-03-08T13:44:51.950Z,17.15
2018-03-08T13:47:17.740Z,17.14
2018-03-08T13:49:43.530Z,17.06
2018-03-08T13:52:09.365Z,17.17
2018-03-08T13:54:35.154Z,17.16
2018-03-08T13:57:00.955Z,17.14
2018-03-08T13:59:26.742Z,17.06
2018-03-08T14:01:52.541Z,17.02
2018-03-08T14:04:18.339Z,17.13
2018-03-08T14:06:44.158Z,17.14
2018-03-08T14:09:09.944Z,17.21
2018-03-08T14:11:35.738Z,17.20
2018-03-08T14:14:01.523Z,17.28
2018-03-08T14:16:27.331Z,17.25
2018-03-08T14:18:53.126Z,17.24
2018-03-08T14:21:18.914Z,17.13
2018-03-08T14:23:44.745Z,17.18
2018-03-08T14:26:10.532Z,17.20
2018-03-08T14:28:36.372Z,17.22
2018-03-08T14:31:02.162Z,17.25
2018-03-08T14:33:27.949Z,17.13
2018-03-08T14:35:53.738Z,17.08
2018-03-08T14:38:19.530Z,17.13
2018-03-08T14:40:45.327Z,17.14
2018-03-08T14:43:11.113Z,17.05
2018-03-08T14:45:36.906Z,17.14
2018-03-08T14:48:02.698Z,17.11
2018-03-08T14:50:28.486Z,17.07
2018-03-08T14:52:54.687Z,17.09
2018-03-08T14:55:20.480Z,17.07
2018-03-08T14:57:46.263Z,17.20
2018-03-08T15:00:12.088Z,17.25
2018-03-08T15:02:37.866Z,17.29
2018-03-08T15:05:03.659Z,17.29
2018-03-08T15:07:29.452Z,17.27
2018-03-08T15:09:55.243Z,17.34
2018-03-08T15:12:21.040Z,17.24
2018-03-08T15:14:46.833Z,17.25
2018-03-08T15:17:12.626Z,17.27
2018-03-08T15:19:38.417Z,17.27
2018-03-08T15:22:04.198Z,17.17
2018-03-08T15:24:30.019Z,17.20
2018-03-08T15:26:55.847Z,17.21
2018-03-08T15:29:21.638Z,17.21
2018-03-08T15:31:47.419Z,17.11
2018-03-08T15:34:14.118Z,17.20
2018-03-08T15:36:39.903Z,17.20
2018-03-08T15:39:05.732Z,17.18
2018-03-08T15:41:31.555Z,17.12
2018-03-08T15:43:57.389Z,17.14
2018-03-08T15:46:23.189Z,17.09
2018-03-08T15:48:48.978Z,17.20
2018-03-08T15:51:14.777Z,17.15
2018-03-08T15:53:40.570Z,17.19
2018-03-08T15:56:06.398Z,17.16
2018-03-08T15:58:33.151Z,17.19
2018-03-08T16:00:58.933Z,17.04
2018-03-08T16:03:24.718Z,17.01
2018-03-08T16:05:50.505Z,16.97
2018-03-08T16:11:07.514Z,16.96
2018-03-08T16:13:33.305Z,17.05
2018-03-08T16:15:59.129Z,17.02
2018-03-08T16:18:24.970Z,17.05
2018-03-08T16:20:50.742Z,17.07
2018-03-08T16:23:16.590Z,17.01
2018-03-08T16:25:42.380Z,17.06
2018-03-08T16:28:08.165Z,17.07
2018-03-08T16:30:33.961Z,17.02
2018-03-08T16:32:59.743Z,16.95
2018-03-08T16:35:25.537Z,16.95
2018-03-08T16:37:51.317Z,17.01
2018-03-08T16:40:17.111Z,16.98
2018-03-08T16:42:42.962Z,17.00
2018-03-08T16:45:08.746Z,16.97
2018-03-08T16:47:34.529Z,17.08
2018-03-08T16:50:00.325Z,17.03
2018-03-08T16:52:26.116Z,17.10
2018-03-08T16:54:51.902Z,17.05
2018-03-08T16:57:17.685Z,17.14
2018-03-08T16:59:43.462Z,17.13
2018-03-08T17:02:09.246Z,17.06
2018-03-08T17:04:35.128Z,16.95
2018-03-08T17:07:00.876Z,16.97
2018-03-08T17:09:26.862Z,16.98
2018-03-08T17:11:52.663Z,16.97
2018-03-08T17:14:18.447Z,17.03
2018-03-08T17:16:45.117Z,17.03
2018-03-08T17:19:10.938Z,17.03
2018-03-08T17:21:36.722Z,17.00
2018-03-08T17:24:02.499Z,17.00
2018-03-08T17:26:28.287Z,17.06
2018-03-08T17:28:54.101Z,17.01
2018-03-08T17:31:19.891Z,17.17
2018-03-08T17:33:45.671Z,17.00
2018-03-08T17:36:11.458Z,17.04
2018-03-08T17:38:37.244Z,17.08
2018-03-08T17:41:03.026Z,17.08
2018-03-08T17:43:28.804Z,17.00
2018-03-08T17:45:54.586Z,17.03
2018-03-08T17:48:20.363Z,17.00
2018-03-08T17:50:46.142Z,17.10
2018-03-08T17:53:11.924Z,17.12
2018-03-08T17:55:37.707Z,17.05
2018-03-08T17:58:03.506Z,17.10
2018-03-08T18:00:29.355Z,17.17
2018-03-08T18:02:55.134Z,17.07
2018-03-08T18:05:20.950Z,17.05
2018-03-08T18:07:46.730Z,17.05
2018-03-08T18:10:12.546Z,16.99
2018-03-08T18:12:38.327Z,16.99
2018-03-08T18:15:05.097Z,17.08
2018-03-08T18:17:30.927Z,17.02
2018-03-08T18:19:56.705Z,16.96
2018-03-08T18:22:22.488Z,17.07
2018-03-08T18:24:48.314Z,16.99
2018-03-08T18:27:14.130Z,16.97
2018-03-08T18:29:39.994Z,16.91
2018-03-08T18:32:05.790Z,16.87
2018-03-08T18:34:31.574Z,16.93
2018-03-08T18:36:58.535Z,16.85
2018-03-08T18:39:24.363Z,16.89
2018-03-08T18:41:51.146Z,16.87
2018-03-08T18:44:16.929Z,16.80
2018-03-08T18:46:42.748Z,16.88
2018-03-08T18:49:08.587Z,17.02
2018-03-08T18:51:34.362Z,16.99
2018-03-08T18:54:00.133Z,17.08
2018-03-08T18:56:25.911Z,16.99
2018-03-08T18:58:51.687Z,17.00
2018-03-08T19:01:17.474Z,16.94
2018-03-08T19:03:43.303Z,16.91
2018-03-08T19:06:09.182Z,16.92
2018-03-08T19:08:34.967Z,16.92
2018-03-08T19:11:00.797Z,16.92
2018-03-08T19:13:26.617Z,16.79
2018-03-08T19:15:52.403Z,16.90
2018-03-08T19:18:18.199Z,16.81
2018-03-08T19:20:44.022Z,16.93
2018-03-08T19:23:09.811Z,16.94
2018-03-08T19:25:35.660Z,16.92
2018-03-08T19:28:01.471Z,16.84
2018-03-08T19:30:27.327Z,16.87
2018-03-08T19:32:53.107Z,16.90
2018-03-08T19:35:19.024Z,16.91
2018-03-08T19:37:44.834Z,16.90
2018-03-08T19:40:10.765Z,16.82
2018-03-08T19:42:36.677Z,16.85
2018-03-08T19:45:02.615Z,16.76
2018-03-08T19:47:28.402Z,16.92
2018-03-08T19:49:56.301Z,16.83
2018-03-08T19:52:22.090Z,16.83
2018-03-08T19:54:47.882Z,16.74
2018-03-08T19:57:13.718Z,16.68
2018-03-08T19:59:39.543Z,16.72
2018-03-08T20:02:05.339Z,16.70
2018-03-08T20:04:31.164Z,16.72
2018-03-08T20:06:57.783Z,16.72
2018-03-08T20:09:23.568Z,16.59
2018-03-08T20:11:49.355Z,16.71
2018-03-08T20:14:15.179Z,16.86
2018-03-08T20:16:40.967Z,16.95
2018-03-08T20:19:06.791Z,16.99
2018-03-08T20:21:34.616Z,17.05
2018-03-08T20:24:00.406Z,16.93
2018-03-08T20:26:26.200Z,16.86
2018-03-08T20:28:51.990Z,16.85
2018-03-08T20:31:17.773Z,16.86
2018-03-08T20:33:43.558Z,16.89
2018-03-08T20:36:09.442Z,16.80
2018-03-08T20:38:35.234Z,16.82
2018-03-08T20:41:01.018Z,16.83
2018-03-08T20:43:27.916Z,16.85
2018-03-08T20:45:53.708Z,16.71
2018-03-08T20:48:19.494Z,16.77
2018-03-08T20:50:45.286Z,16.78
2018-03-08T20:53:14.154Z,16.86
2018-03-08T20:55:39.943Z,16.79
2018-03-08T20:58:05.727Z,16.75
2018-03-08T21:00:31.517Z,16.72
2018-03-08T21:02:57.306Z,16.75
2018-03-08T21:05:23.096Z,16.69
2018-03-08T21:07:48.966Z,16.71
2018-03-08T21:10:14.750Z,16.81
2018-03-08T21:12:40.540Z,16.71
2018-03-08T21:15:06.373Z,16.77
2018-03-08T21:17:32.155Z,16.76
2018-03-08T21:19:57.959Z,16.80
2018-03-08T21:22:23.789Z,16.76
2018-03-08T21:24:49.571Z,16.77
2018-03-08T21:27:15.366Z,16.78
2018-03-08T21:29:41.194Z,16.76
2018-03-08T21:32:06.975Z,16.86
2018-03-08T21:34:32.793Z,16.74
2018-03-08T21:36:58.582Z,16.64
2018-03-08T21:39:24.474Z,16.77
2018-03-08T21:41:50.260Z,16.68
2018-03-08T21:44:16.117Z,16.82
2018-03-08T21:46:41.901Z,16.79
2018-03-08T21:49:07.751Z,16.84
2018-03-08T21:51:33.542Z,16.73
2018-03-08T21:53:59.369Z,16.74
2018-03-08T21:56:25.162Z,16.72
2018-03-08T21:58:50.982Z,16.71
2018-03-08T22:01:16.822Z,16.71
2018-03-08T22:03:42.663Z,16.78
2018-03-08T22:06:08.486Z,16.79
2018-03-08T22:08:34.324Z,16.83
2018-03-08T22:11:00.102Z,16.73
2018-03-08T22:13:25.888Z,16.79
2018-03-08T22:15:51.702Z,16.84
2018-03-08T22:18:17.486Z,16.91
2018-03-08T22:20:43.307Z,16.93
2018-03-08T22:23:09.102Z,17.01
2018-03-08T22:25:34.890Z,16.92
2018-03-08T22:28:00.689Z,16.98
2018-03-08T22:30:26.479Z,16.94
2018-03-08T22:32:52.274Z,16.98
2018-03-08T22:35:18.054Z,16.86
2018-03-08T22:37:44.651Z,16.92
2018-03-08T22:40:10.434Z,16.90
2018-03-08T22:42:36.275Z,16.93
2018-03-08T22:45:02.062Z,16.82
2018-03-08T22:47:28.030Z,16.84
2018-03-08T22:49:53.812Z,16.88
2018-03-08T22:52:19.634Z,16.80
2018-03-08T22:54:45.452Z,16.83
2018-03-08T22:57:11.322Z,16.74
2018-03-08T22:59:37.114Z,16.89
2018-03-08T23:02:02.926Z,16.83
2018-03-08T23:04:28.767Z,16.90
